Time;durP1;ratioP1;P1;durP2;ratioP2;P2;SDS_P1;SDS_P2;PMS_P1;PMS_P2;Temp;Humidity;BMP_temperature;BMP_pressure;BME280_temperature;BME280_humidity;BME280_pressure;Samples;Min_cycle;Max_cycle;Signal;HPM_P1;HPM_P2
2023/08/04 00:00:14;;;;;;;;;4.75;4.00;;;;;18.67;83.05;100798.13;4983711;28;45409;-66
2023/08/04 00:02:39;;;;;;;;;4.50;4.00;;;;;18.69;82.62;100807.00;4991368;28;45338;-66
2023/08/04 00:05:06;;;;;;;;;5.75;5.75;;;;;18.84;82.88;100830.38;5000848;28;46302;-66
2023/08/04 00:07:33;;;;;;;;;7.00;5.25;;;;;18.54;82.83;100780.97;4999634;28;45411;-66
2023/08/04 00:09:58;;;;;;;;;6.50;5.00;;;;;18.79;83.18;100820.78;5001140;28;45399;-66
2023/08/04 00:12:24;;;;;;;;;3.50;3.25;;;;;18.65;82.80;100806.34;5000914;28;45402;-66
2023/08/04 00:14:49;;;;;;;;;4.75;4.25;;;;;18.75;82.75;100833.66;5000872;28;45354;-66
2023/08/04 00:17:15;;;;;;;;;5.75;5.00;;;;;18.68;82.96;100816.09;5000559;28;45329;-66
2023/08/04 00:19:41;;;;;;;;;4.50;4.50;;;;;18.79;83.07;100837.88;5001124;28;45559;-66
2023/08/04 00:22:07;;;;;;;;;6.75;5.25;;;;;18.63;82.97;100811.00;5000656;28;45273;-66
2023/08/04 00:24:32;;;;;;;;;4.25;4.25;;;;;18.61;83.32;100815.63;5000885;28;45438;-66
2023/08/04 00:26:57;;;;;;;;;9.00;4.75;;;;;18.61;83.17;100806.63;4982903;28;45483;-66
2023/08/04 00:29:22;;;;;;;;;5.00;5.00;;;;;18.73;83.21;100835.59;5012581;28;45588;-67
2023/08/04 00:31:48;;;;;;;;;5.50;4.00;;;;;18.64;83.34;100818.16;5001891;28;45396;-66
2023/08/04 00:34:13;;;;;;;;;4.00;3.50;;;;;18.78;83.21;100843.41;5000617;28;45416;-66
2023/08/04 00:36:39;;;;;;;;;10.50;7.00;;;;;18.65;82.70;100816.28;5000000;28;45420;-66
2023/08/04 00:39:04;;;;;;;;;6.00;6.00;;;;;18.77;82.98;100853.34;4983048;28;45424;-66
2023/08/04 00:41:30;;;;;;;;;5.50;5.50;;;;;18.78;83.59;100844.28;5000436;28;45362;-67
2023/08/04 00:43:55;;;;;;;;;7.00;7.00;;;;;18.80;83.33;100846.88;4998999;28;48264;-66
2023/08/04 00:46:22;;;;;;;;;6.00;5.50;;;;;18.58;83.01;100818.53;4998864;28;45404;-66
2023/08/04 00:48:47;;;;;;;;;6.75;5.25;;;;;18.78;83.15;100848.81;5000585;28;45416;-66
2023/08/04 00:51:13;;;;;;;;;6.75;6.75;;;;;18.74;83.58;100847.28;4999053;28;45439;-66
2023/08/04 00:53:39;;;;;;;;;8.25;5.75;;;;;18.68;83.30;100849.41;4998911;28;47750;-66
2023/08/04 00:56:04;;;;;;;;;8.75;6.00;;;;;18.72;83.43;100852.78;4982512;28;45511;-66
2023/08/04 00:58:33;;;;;;;;;12.50;8.50;;;;;18.51;83.51;100823.47;5000468;28;45382;-66
2023/08/04 01:00:59;;;;;;;;;5.50;5.50;;;;;18.72;83.49;100860.03;4999984;28;45649;-66
2023/08/04 01:03:25;;;;;;;;;6.00;6.00;;;;;18.66;83.61;100850.47;5011598;28;45553;-66
2023/08/04 01:05:54;;;;;;;;;9.50;6.75;;;;;18.72;83.74;100860.03;4983635;28;46274;-66
2023/08/04 01:08:23;;;;;;;;;5.75;5.75;;;;;18.50;83.54;100820.84;4982655;28;45310;-66
2023/08/04 01:10:53;;;;;;;;;8.25;7.75;;;;;18.69;83.66;100855.66;5018880;28;45653;-66
2023/08/04 01:13:22;;;;;;;;;6.00;5.50;;;;;18.59;83.69;100838.31;5001809;28;48203;-66
2023/08/04 01:15:49;;;;;;;;;6.25;6.25;;;;;18.66;83.67;100856.75;5019717;28;45400;-66
2023/08/04 01:18:19;;;;;;;;;8.00;6.25;;;;;18.58;83.77;100845.56;5019771;28;45510;-66
2023/08/04 01:20:45;;;;;;;;;6.00;6.00;;;;;18.42;83.86;100815.06;5001675;28;45479;-66
2023/08/04 01:23:10;;;;;;;;;4.50;3.75;;;;;18.49;83.87;100828.09;5019576;28;46534;-66
2023/08/04 01:25:36;;;;;;;;;6.00;6.00;;;;;18.65;83.71;100860.41;5001928;28;45434;-66
2023/08/04 01:28:05;;;;;;;;;8.75;5.75;;;;;18.67;83.80;100863.03;4988537;28;45380;-66
2023/08/04 01:30:32;;;;;;;;;4.50;4.50;;;;;18.59;83.70;100846.41;5011978;28;45456;-66
2023/08/04 01:32:58;;;;;;;;;6.25;6.00;;;;;18.39;83.60;100816.13;4999322;28;46412;-66
2023/08/04 01:35:23;;;;;;;;;6.50;6.50;;;;;18.45;83.53;100818.44;4999758;28;45386;-67
2023/08/04 01:37:49;;;;;;;;;6.75;6.50;;;;;18.48;84.08;100823.66;4999943;28;45282;-66
2023/08/04 01:40:14;;;;;;;;;6.75;4.75;;;;;18.67;83.81;100855.75;4998463;28;45386;-66
2023/08/04 01:42:40;;;;;;;;;5.50;5.00;;;;;18.47;83.66;100830.00;4999544;28;46251;-66
2023/08/04 01:45:06;;;;;;;;;8.50;6.75;;;;;18.60;83.83;100854.44;4999270;28;45497;-66
2023/08/04 01:47:32;;;;;;;;;8.25;7.00;;;;;18.61;83.80;100853.47;4999068;28;45254;-66
2023/08/04 01:49:57;;;;;;;;;10.25;7.25;;;;;18.57;84.05;100856.47;4999063;28;45361;-66
2023/08/04 01:52:23;;;;;;;;;10.00;8.25;;;;;18.42;83.98;100834.84;4999206;28;45552;-66
2023/08/04 01:54:48;;;;;;;;;5.75;5.75;;;;;18.47;84.42;100842.69;4999623;28;45353;-66
2023/08/04 01:57:14;;;;;;;;;6.75;6.25;;;;;18.56;83.97;100871.84;4998059;28;45490;-66
2023/08/04 01:59:39;;;;;;;;;4.75;4.00;;;;;18.44;84.16;100846.47;4999510;28;45443;-67
2023/08/04 02:02:05;;;;;;;;;5.75;5.50;;;;;18.58;84.10;100872.59;5005269;28;48216;-66
2023/08/04 02:04:30;;;;;;;;;7.00;6.00;;;;;18.40;84.03;100855.72;4999276;28;45302;-67
2023/08/04 02:06:55;;;;;;;;;7.00;7.00;;;;;18.25;84.01;100835.06;4981616;28;45393;-66
2023/08/04 02:09:22;;;;;;;;;8.50;5.75;;;;;18.50;84.16;100877.63;4998876;28;57407;-66
2023/08/04 02:11:48;;;;;;;;;7.25;6.75;;;;;18.26;84.62;100832.28;4999138;28;45543;-66
2023/08/04 02:14:14;;;;;;;;;7.00;5.25;;;;;18.49;84.46;100874.06;4981495;28;45455;-66
2023/08/04 02:16:39;;;;;;;;;7.00;7.00;;;;;18.38;84.70;100857.66;4999087;28;45322;-66
2023/08/04 02:19:08;;;;;;;;;5.00;4.00;;;;;18.54;84.47;100884.56;4999160;28;45344;-66
2023/08/04 02:21:34;;;;;;;;;4.50;4.50;;;;;18.38;84.13;100863.06;4991975;28;47796;-66
2023/08/04 02:23:59;;;;;;;;;8.75;6.50;;;;;18.26;84.71;100842.19;4997834;28;45915;-66
2023/08/04 02:26:25;;;;;;;;;6.75;6.75;;;;;18.32;84.40;100858.88;4999147;28;45298;-66
2023/08/04 02:28:52;;;;;;;;;7.50;5.00;;;;;18.45;84.45;100886.00;5004863;28;45487;-66
2023/08/04 02:31:18;;;;;;;;;8.75;5.75;;;;;18.45;84.65;100882.44;5004495;28;46260;-66
2023/08/04 02:33:43;;;;;;;;;3.25;3.25;;;;;18.51;84.02;100887.47;4998742;28;45364;-67
2023/08/04 02:36:11;;;;;;;;;4.75;4.75;;;;;18.37;84.24;100869.41;4997667;28;45449;-66
2023/08/04 02:38:37;;;;;;;;;9.75;5.75;;;;;18.48;84.63;100890.38;4998993;28;45551;-66
2023/08/04 02:41:03;;;;;;;;;9.75;6.25;;;;;18.41;84.70;100876.38;4998711;28;46165;-66
2023/08/04 02:43:29;;;;;;;;;6.25;5.25;;;;;18.31;84.68;100859.00;4998790;28;45551;-66
2023/08/04 02:45:54;;;;;;;;;5.25;5.00;;;;;18.34;84.59;100869.59;4997335;28;45433;-67
2023/08/04 02:48:20;;;;;;;;;11.25;6.00;;;;;18.31;84.30;100861.72;4997469;28;45587;-66
2023/08/04 02:50:46;;;;;;;;;9.50;5.75;;;;;18.34;84.64;100875.00;4998649;28;46002;-66
2023/08/04 02:53:12;;;;;;;;;7.25;7.25;;;;;18.41;84.45;100889.88;4998619;28;45562;-66
2023/08/04 02:55:37;;;;;;;;;6.50;6.50;;;;;18.47;84.68;100902.13;4998909;28;45364;-66
2023/08/04 02:58:03;;;;;;;;;6.00;5.75;;;;;18.42;84.60;100888.03;4998685;28;45274;-66
2023/08/04 03:00:28;;;;;;;;;6.50;6.50;;;;;18.44;84.62;100894.22;5000606;28;46043;-66
2023/08/04 03:02:53;;;;;;;;;6.75;6.75;;;;;18.27;84.58;100862.84;5010555;28;45338;-66
2023/08/04 03:05:19;;;;;;;;;8.75;6.25;;;;;18.42;84.85;100885.34;4984291;28;45424;-66
2023/08/04 03:07:44;;;;;;;;;7.75;7.75;;;;;18.45;84.63;100886.00;5002177;28;45361;-66
2023/08/04 03:10:10;;;;;;;;;6.25;6.25;;;;;18.45;84.63;100894.13;4984172;28;48783;-66
2023/08/04 03:12:35;;;;;;;;;7.50;6.00;;;;;18.49;84.94;100901.09;5001996;28;45333;-66
2023/08/04 03:15:00;;;;;;;;;11.00;7.50;;;;;18.54;84.53;100910.72;4984275;28;45285;-66
2023/08/04 03:17:26;;;;;;;;;6.00;5.50;;;;;18.54;84.65;100910.72;5001633;28;45331;-66
2023/08/04 03:19:51;;;;;;;;;7.00;7.00;;;;;18.52;84.44;100913.53;5001789;28;46493;-66
2023/08/04 03:22:17;;;;;;;;;7.75;7.75;;;;;18.54;84.59;100917.00;5001640;28;45306;-66
2023/08/04 03:24:42;;;;;;;;;9.25;7.50;;;;;18.48;84.55;100909.28;5001961;28;45532;-66
2023/08/04 03:27:07;;;;;;;;;8.50;8.50;;;;;18.47;84.39;100905.69;5001618;28;45326;-66
2023/08/04 03:29:33;;;;;;;;;10.50;9.25;;;;;18.47;84.78;100904.84;5014600;28;46438;-66
2023/08/04 03:31:58;;;;;;;;;11.50;11.50;;;;;18.55;84.84;100921.44;4996752;28;45388;-66
2023/08/04 03:34:23;;;;;;;;;8.25;8.25;;;;;18.41;84.77;100906.09;5001655;28;45577;-66
2023/08/04 03:36:49;;;;;;;;;9.50;7.50;;;;;18.31;84.53;100897.69;4990321;28;45520;-66
2023/08/04 03:39:14;;;;;;;;;7.75;7.75;;;;;18.46;84.66;100925.59;5003457;28;48148;-66
2023/08/04 03:41:40;;;;;;;;;10.25;9.25;;;;;18.24;84.45;100893.66;5021248;28;45337;-66
2023/08/04 03:44:05;;;;;;;;;8.75;6.50;;;;;18.37;84.98;100926.16;5003429;28;45863;-66
2023/08/04 03:46:30;;;;;;;;;11.25;11.25;;;;;18.39;84.51;100940.44;5003302;28;45555;-66
2023/08/04 03:48:56;;;;;;;;;9.25;7.50;;;;;18.38;85.19;100933.31;5003136;28;47385;-66
2023/08/04 03:51:22;;;;;;;;;11.25;8.25;;;;;18.35;85.03;100930.81;5021269;28;45349;-66
2023/08/04 03:53:48;;;;;;;;;8.25;7.00;;;;;18.29;85.00;100926.66;5021191;28;45408;-66
2023/08/04 03:56:13;;;;;;;;;7.75;7.75;;;;;18.38;85.10;100944.13;5003210;28;45684;-66
2023/08/04 03:58:39;;;;;;;;;6.75;4.75;;;;;18.26;85.16;100943.06;5021006;28;45535;-66
2023/08/04 04:01:04;;;;;;;;;8.00;8.00;;;;;18.35;85.49;100948.84;5020855;28;45345;-66
2023/08/04 04:03:29;;;;;;;;;11.25;10.00;;;;;18.13;85.28;100918.63;5008381;28;45341;-66
2023/08/04 04:05:55;;;;;;;;;11.25;9.25;;;;;18.11;85.49;100917.84;5001147;28;45586;-66
2023/08/04 04:08:20;;;;;;;;;10.50;9.25;;;;;18.15;85.45;100926.63;5001182;28;46487;-66
2023/08/04 04:10:48;;;;;;;;;8.00;8.00;;;;;18.38;85.37;100964.88;5000608;28;45327;-66
2023/08/04 04:13:13;;;;;;;;;7.75;7.00;;;;;18.38;85.27;100965.75;5000779;28;45468;-66
2023/08/04 04:15:38;;;;;;;;;10.25;10.00;;;;;18.32;85.62;100963.41;4999294;28;45383;-66
2023/08/04 04:18:04;;;;;;;;;9.00;8.00;;;;;18.30;85.91;100963.50;4999436;28;46987;-66
2023/08/04 04:20:29;;;;;;;;;11.00;10.00;;;;;18.38;85.71;100967.59;4983119;28;45384;-66
2023/08/04 04:22:54;;;;;;;;;6.50;6.50;;;;;18.38;85.65;100970.28;5001031;28;45569;-66
2023/08/04 04:25:20;;;;;;;;;9.75;9.00;;;;;18.32;86.00;100966.13;5000781;28;45404;-66
2023/08/04 04:27:45;;;;;;;;;11.50;10.25;;;;;18.35;85.88;100965.94;4983020;28;46529;-66
2023/08/04 04:30:11;;;;;;;;;12.75;11.50;;;;;18.35;85.63;100973.19;5014241;28;45495;-66
2023/08/04 04:32:36;;;;;;;;;10.00;8.50;;;;;18.26;85.89;100961.97;5000535;28;45348;-66
2023/08/04 04:35:01;;;;;;;;;7.50;6.50;;;;;18.39;85.86;100966.59;5000449;28;45427;-66
2023/08/04 04:37:27;;;;;;;;;11.50;9.50;;;;;18.23;85.94;100942.38;5000717;28;45443;-66
2023/08/04 04:39:52;;;;;;;;;10.75;8.00;;;;;18.47;85.72;100986.78;5000573;28;45639;-66
2023/08/04 04:42:17;;;;;;;;;10.25;9.00;;;;;18.44;86.19;100978.91;4982889;28;45413;-66
2023/08/04 04:44:43;;;;;;;;;8.50;7.00;;;;;18.25;86.22;100946.72;5000425;28;45396;-66
2023/08/04 04:47:09;;;;;;;;;9.75;9.75;;;;;18.44;86.04;100981.59;5000163;28;45287;-66
2023/08/04 04:49:35;;;;;;;;;9.25;8.75;;;;;18.52;85.76;101000.03;5000366;28;45278;-66
2023/08/04 04:52:00;;;;;;;;;11.00;8.00;;;;;18.46;85.66;100985.06;5000618;28;45354;-67
2023/08/04 04:54:25;;;;;;;;;10.00;9.50;;;;;18.55;85.81;101001.69;5000196;28;45627;-66
2023/08/04 04:56:51;;;;;;;;;10.25;10.25;;;;;18.50;85.51;100989.31;5000159;28;46019;-66
2023/08/04 04:59:16;;;;;;;;;10.25;10.00;;;;;18.45;85.84;100979.75;5000194;28;45387;-66
2023/08/04 05:01:42;;;;;;;;;9.75;9.75;;;;;18.54;85.81;100991.81;5005967;28;45321;-66
2023/08/04 05:04:07;;;;;;;;;11.25;9.25;;;;;18.55;86.06;100997.13;5003446;28;45424;-66
2023/08/04 05:06:33;;;;;;;;;13.75;11.00;;;;;18.39;85.86;100969.31;4982335;28;47247;-66
2023/08/04 05:08:58;;;;;;;;;13.25;12.50;;;;;18.59;85.83;101004.06;5000097;28;45532;-66
2023/08/04 05:11:23;;;;;;;;;9.50;9.50;;;;;18.36;nan;100969.50;5000232;28;45610;-66
2023/08/04 05:13:49;;;;;;;;;13.00;12.00;;;;;18.44;85.50;100980.72;4999915;28;45461;-66
2023/08/04 05:16:14;;;;;;;;;13.75;9.75;;;;;18.50;85.97;100994.72;4999936;28;46441;-67
2023/08/04 05:18:39;;;;;;;;;11.75;10.25;;;;;18.55;85.75;101010.66;4999744;28;45432;-66
2023/08/04 05:21:05;;;;;;;;;11.25;11.25;;;;;18.52;85.69;101000.03;4998908;28;45599;-66
2023/08/04 05:23:30;;;;;;;;;11.00;9.50;;;;;18.61;86.07;101010.28;4982169;28;45577;-66
2023/08/04 05:25:56;;;;;;;;;14.25;13.00;;;;;18.55;85.87;100998.97;4999785;28;45531;-67
2023/08/04 05:28:30;;;;;;;;;12.25;12.25;;;;;18.60;86.02;101023.91;5002991;28;45324;-66
2023/08/04 05:31:00;;;;;;;;;12.50;11.50;;;;;18.58;85.98;101029.41;5008716;28;45401;-67
2023/08/04 05:33:27;;;;;;;;;15.75;14.00;;;;;18.48;86.21;101006.59;4981886;28;45403;-66
2023/08/04 05:35:53;;;;;;;;;9.50;9.50;;;;;18.39;86.08;100997.19;4999538;28;46512;-66
2023/08/04 05:38:19;;;;;;;;;13.25;13.25;;;;;18.49;86.00;101024.53;4999560;28;45534;-67
2023/08/04 05:40:46;;;;;;;;;12.50;11.75;;;;;18.46;86.12;101012.09;4999880;28;45424;-66
2023/08/04 05:43:12;;;;;;;;;10.25;10.25;;;;;18.55;86.40;101032.28;4999618;28;45512;-66
2023/08/04 05:45:39;;;;;;;;;13.00;10.75;;;;;18.50;86.49;101026.28;4999310;28;45460;-67
2023/08/04 05:48:04;;;;;;;;;13.75;11.75;;;;;18.41;86.50;101018.72;4999201;28;45499;-66
2023/08/04 05:50:30;;;;;;;;;13.25;11.00;;;;;18.49;86.72;101036.25;4981995;28;45327;-66
2023/08/04 05:52:56;;;;;;;;;11.75;11.00;;;;;18.45;86.72;101026.56;4999329;28;45506;-66
2023/08/04 05:55:22;;;;;;;;;12.75;12.25;;;;;18.29;86.54;101009.53;4999504;28;46066;-67
2023/08/04 05:57:47;;;;;;;;;12.00;10.00;;;;;18.35;86.66;101016.41;4981517;28;45353;-66
2023/08/04 06:00:12;;;;;;;;;11.50;10.75;;;;;18.30;86.43;101005.88;4999641;28;45731;-66
2023/08/04 06:02:38;;;;;;;;;10.25;10.25;;;;;18.39;86.69;101020.66;5007731;28;45640;-66
2023/08/04 06:05:04;;;;;;;;;9.25;9.25;;;;;18.49;86.72;101033.53;4999343;28;45551;-66
2023/08/04 06:07:29;;;;;;;;;12.00;10.75;;;;;18.47;86.72;101038.16;4999211;28;45412;-66
2023/08/04 06:09:55;;;;;;;;;13.50;12.50;;;;;18.46;86.64;101022.00;4999442;28;45537;-66
2023/08/04 06:12:20;;;;;;;;;15.25;13.75;;;;;18.42;86.66;101015.94;4999058;28;45326;-66
2023/08/04 06:14:46;;;;;;;;;13.00;11.25;;;;;18.59;86.79;101041.94;4981319;28;48186;-66
2023/08/04 06:17:12;;;;;;;;;13.50;13.25;;;;;18.47;86.77;101019.22;4997588;28;45609;-66
2023/08/04 06:19:42;;;;;;;;;11.50;8.00;;;;;18.58;86.65;101048.31;4999310;28;45446;-66
2023/08/04 06:22:08;;;;;;;;;9.75;8.00;;;;;18.59;86.95;101047.34;4999010;28;45632;-66
2023/08/04 06:24:33;;;;;;;;;11.00;9.75;;;;;18.61;86.42;101045.44;4981323;28;46262;-67
2023/08/04 06:26:58;;;;;;;;;9.00;8.75;;;;;18.72;86.94;101069.09;4999036;28;45454;-66
2023/08/04 06:29:24;;;;;;;;;12.25;11.25;;;;;18.66;86.88;101058.66;5009430;28;45516;-66
2023/08/04 06:31:49;;;;;;;;;13.75;11.75;;;;;18.56;86.57;101046.66;4999870;28;45396;-66
2023/08/04 06:34:15;;;;;;;;;16.25;13.00;;;;;18.52;86.71;101040.56;4999134;28;45492;-66
2023/08/04 06:36:44;;;;;;;;;13.75;12.75;;;;;18.72;86.52;101070.94;5002287;28;45314;-66
2023/08/04 06:39:09;;;;;;;;;11.75;11.50;;;;;18.76;86.58;101078.78;5002652;28;45365;-66
2023/08/04 06:41:35;;;;;;;;;14.50;13.50;;;;;18.73;86.60;101073.56;5002287;28;45369;-66
2023/08/04 06:44:00;;;;;;;;;9.00;9.00;;;;;18.73;86.77;101070.84;5002109;28;45417;-66
2023/08/04 06:46:25;;;;;;;;;16.75;15.75;;;;;18.82;86.58;101086.50;5002007;28;45288;-67
2023/08/04 06:48:51;;;;;;;;;17.25;14.75;;;;;18.66;86.60;101056.84;5002386;28;45454;-67
2023/08/04 06:51:16;;;;;;;;;16.00;13.50;;;;;18.82;86.53;101088.34;4984454;28;45349;-66
2023/08/04 06:53:41;;;;;;;;;16.25;16.25;;;;;18.82;86.67;101086.50;4984392;28;47289;-67
2023/08/04 06:56:07;;;;;;;;;16.25;16.25;;;;;18.75;86.54;101079.72;5002108;28;45433;-66
2023/08/04 06:58:32;;;;;;;;;12.25;11.50;;;;;18.68;87.01;101067.56;5002176;28;45324;-66
2023/08/04 07:00:57;;;;;;;;;12.50;12.50;;;;;18.75;86.51;101073.47;5001843;28;45613;-66
2023/08/04 07:03:23;;;;;;;;;8.75;8.00;;;;;18.77;86.74;101076.94;5010089;28;45537;-66
2023/08/04 07:05:48;;;;;;;;;14.75;12.75;;;;;18.77;86.21;101077.78;5001939;28;45400;-66
2023/08/04 07:08:13;;;;;;;;;12.75;11.75;;;;;18.72;86.08;101069.09;4984418;28;45413;-66
2023/08/04 07:10:39;;;;;;;;;17.25;13.75;;;;;18.84;86.41;101092.72;5001911;28;45421;-66
2023/08/04 07:13:04;;;;;;;;;13.00;12.25;;;;;18.94;86.45;101113.78;4992024;28;45599;-66
2023/08/04 07:15:31;;;;;;;;;11.00;11.00;;;;;18.88;86.93;101104.22;5001626;28;45413;-66
2023/08/04 07:17:56;;;;;;;;;14.75;13.75;;;;;18.75;86.81;101081.56;5002005;28;45385;-66
2023/08/04 07:20:21;;;;;;;;;13.25;12.75;;;;;18.73;86.64;101081.66;5000468;28;45523;-66
2023/08/04 07:22:47;;;;;;;;;15.00;11.50;;;;;18.85;86.45;101099.00;5001782;28;45584;-66
2023/08/04 07:25:12;;;;;;;;;12.75;11.25;;;;;18.99;86.57;101123.34;4983914;28;45375;-66
2023/08/04 07:27:37;;;;;;;;;17.00;13.75;;;;;18.98;87.00;101123.47;5001934;28;45694;-66
2023/08/04 07:30:04;;;;;;;;;14.25;12.00;;;;;18.96;86.67;101114.56;5014887;28;45287;-66
2023/08/04 07:32:29;;;;;;;;;12.50;12.50;;;;;18.99;86.49;101117.06;4992981;28;48589;-66
2023/08/04 07:34:54;;;;;;;;;8.25;7.75;;;;;19.00;86.50;101118.81;5001590;28;45335;-66
2023/08/04 07:37:20;;;;;;;;;12.00;12.00;;;;;18.93;86.53;101110.22;5000361;28;45369;-66
2023/08/04 07:39:45;;;;;;;;;11.00;11.00;;;;;19.07;86.66;101131.00;4999831;28;54370;-67
2023/08/04 07:42:10;;;;;;;;;11.50;11.50;;;;;18.92;86.33;101100.34;5001377;28;46595;-66
2023/08/04 07:44:36;;;;;;;;;6.25;5.75;;;;;19.05;86.45;101122.97;4983500;28;45386;-66
2023/08/04 07:47:01;;;;;;;;;4.75;3.50;;;;;19.17;86.51;101140.28;5000111;28;45639;-66
2023/08/04 07:49:26;;;;;;;;;8.25;7.75;;;;;19.14;86.34;101131.50;5001244;28;45556;-66
2023/08/04 07:51:52;;;;;;;;;10.25;10.25;;;;;19.13;86.54;101122.50;5001270;28;46094;-66
2023/08/04 07:54:17;;;;;;;;;16.25;12.00;;;;;19.08;86.06;101111.09;5001091;28;45390;-66
2023/08/04 07:56:42;;;;;;;;;3.50;3.50;;;;;19.18;86.78;101130.34;4983791;28;45365;-66
2023/08/04 07:59:08;;;;;;;;;13.25;11.75;;;;;19.30;86.48;101150.38;5001092;28;45543;-66
2023/08/04 08:01:33;;;;;;;;;11.00;11.00;;;;;19.25;85.99;101135.25;5005570;28;45442;-66
2023/08/04 08:03:59;;;;;;;;;11.75;11.75;;;;;19.29;86.26;101138.63;5005094;28;45440;-66
2023/08/04 08:06:24;;;;;;;;;11.50;11.50;;;;;19.37;85.96;101155.28;5001319;28;45408;-66
2023/08/04 08:08:49;;;;;;;;;11.75;11.25;;;;;19.34;85.71;101146.47;5001147;28;45655;-66
2023/08/04 08:11:15;;;;;;;;;13.75;13.00;;;;;19.24;85.57;101130.84;5001071;28;45433;-67
2023/08/04 08:13:40;;;;;;;;;8.50;8.25;;;;;19.37;85.73;101157.13;4999536;28;45564;-66
2023/08/04 08:16:07;;;;;;;;;10.00;10.00;;;;;19.42;86.22;101166.69;4983031;28;45332;-66
2023/08/04 08:18:33;;;;;;;;;9.50;9.25;;;;;19.23;86.08;101136.34;4999562;28;45934;-66
2023/08/04 08:20:58;;;;;;;;;11.25;9.00;;;;;19.31;85.92;101152.97;5000857;28;45373;-66
2023/08/04 08:23:23;;;;;;;;;9.50;9.50;;;;;19.30;85.93;101142.25;5000718;28;45378;-66
2023/08/04 08:25:48;;;;;;;;;10.75;9.00;;;;;19.25;85.93;101137.97;4999741;28;45513;-66
2023/08/04 08:28:14;;;;;;;;;10.50;8.75;;;;;19.47;86.21;101176.38;5002929;28;45316;-67
2023/08/04 08:30:39;;;;;;;;;13.00;11.50;;;;;19.44;85.92;101169.28;5011642;28;45538;-66
2023/08/04 08:33:05;;;;;;;;;13.75;9.00;;;;;19.48;85.93;101175.38;5000585;28;45250;-66
2023/08/04 08:35:30;;;;;;;;;10.50;9.00;;;;;19.55;86.08;101179.47;4983119;28;46018;-66
2023/08/04 08:37:56;;;;;;;;;7.75;7.25;;;;;19.49;86.11;101171.72;5000476;28;45270;-66
2023/08/04 08:40:23;;;;;;;;;7.00;7.00;;;;;19.57;85.93;101186.50;4999295;28;46916;-66
2023/08/04 08:42:48;;;;;;;;;11.50;9.50;;;;;19.53;85.22;101174.16;5000550;28;45491;-66
2023/08/04 08:45:14;;;;;;;;;8.75;7.50;;;;;19.46;85.07;101155.66;5000531;28;45412;-66
2023/08/04 08:47:39;;;;;;;;;7.00;5.50;;;;;19.59;84.99;101176.44;5000092;28;45389;-66
2023/08/04 08:50:06;;;;;;;;;10.00;8.50;;;;;19.70;84.84;101185.75;4982733;28;47122;-66
2023/08/04 08:52:39;;;;;;;;;11.50;8.25;;;;;19.70;85.12;101200.16;5000294;28;45712;-66
2023/08/04 08:55:05;;;;;;;;;7.25;7.25;;;;;19.72;85.20;101200.06;5000714;28;45341;-66
2023/08/04 08:57:31;;;;;;;;;9.50;6.50;;;;;19.70;85.05;101189.31;4999754;28;45396;-66
2023/08/04 08:59:58;;;;;;;;;9.50;9.50;;;;;19.77;84.87;101204.22;4998986;28;48378;-66
2023/08/04 09:02:23;;;;;;;;;7.25;7.25;;;;;19.76;84.95;101210.63;5008030;28;45313;-66
2023/08/04 09:04:49;;;;;;;;;4.00;4.00;;;;;19.80;84.44;101214.00;4999048;28;45454;-66
2023/08/04 09:07:14;;;;;;;;;6.50;6.50;;;;;19.74;84.76;101200.81;5000183;28;45554;-66
2023/08/04 09:09:40;;;;;;;;;7.00;7.00;;;;;19.86;84.26;101210.88;5000275;28;45398;-66
2023/08/04 09:12:06;;;;;;;;;7.25;6.50;;;;;19.88;83.44;101210.78;5000008;28;45295;-66
2023/08/04 09:14:51;;;;;;;;;10.00;9.00;;;;;19.92;84.56;101207.78;5000188;28;45345;-66
2023/08/04 09:17:33;;;;;;;;;6.50;6.50;;;;;19.90;83.61;101204.31;4999711;28;45533;-66
2023/08/04 09:20:00;;;;;;;;;8.25;7.50;;;;;19.99;83.58;101213.69;4999870;28;46420;-66
2023/08/04 09:22:26;;;;;;;;;8.75;7.00;;;;;20.05;83.88;101212.44;4999999;28;45385;-66
2023/08/04 09:24:59;;;;;;;;;6.00;6.00;;;;;19.91;82.85;101194.34;5000009;28;45279;-66
2023/08/04 09:27:34;;;;;;;;;9.25;8.00;;;;;20.12;83.56;101219.19;4998695;28;45546;-67
2023/08/04 09:30:02;;;;;;;;;7.75;6.75;;;;;20.15;83.50;101225.28;4995308;28;47348;-67
2023/08/04 09:32:28;;;;;;;;;6.50;6.50;;;;;20.17;83.38;101227.91;4991490;28;45542;-66
2023/08/04 09:35:06;;;;;;;;;10.00;10.00;;;;;20.23;84.48;101219.38;4999581;28;45442;-66
2023/08/04 09:37:33;;;;;;;;;12.50;12.00;;;;;20.09;83.38;101197.72;4999835;28;45498;-67
2023/08/04 09:40:01;;;;;;;;;9.50;9.00;;;;;20.20;82.69;101207.84;4999549;28;45453;-66
2023/08/04 09:42:26;;;;;;;;;9.75;7.00;;;;;20.16;82.51;101196.31;4998424;28;45523;-66
2023/08/04 09:44:53;;;;;;;;;7.25;7.25;;;;;20.37;82.19;101223.88;4981685;28;45366;-66
2023/08/04 09:47:25;;;;;;;;;10.75;8.75;;;;;20.39;81.96;101218.34;4997942;28;45765;-66
2023/08/04 09:49:52;;;;;;;;;10.75;9.75;;;;;20.42;81.52;101218.16;4999303;28;45405;-67
2023/08/04 09:52:22;;;;;;;;;10.50;10.25;;;;;20.39;81.98;101205.66;4998192;28;45430;-66
2023/08/04 09:54:51;;;;;;;;;9.00;8.25;;;;;20.43;81.04;101203.59;4999604;28;45416;-66
2023/08/04 09:57:17;;;;;;;;;5.75;5.75;;;;;20.42;81.24;101194.63;4999366;28;45546;-66
2023/08/04 09:59:42;;;;;;;;;6.75;5.50;;;;;20.30;80.34;101161.06;4999329;28;46412;-66
2023/08/04 10:02:09;;;;;;;;;9.00;8.00;;;;;20.57;80.01;101198.16;5007177;28;45519;-66
2023/08/04 10:04:36;;;;;;;;;8.00;8.00;;;;;20.55;79.96;101194.66;4999351;28;45637;-66
2023/08/04 10:07:02;;;;;;;;;8.25;7.25;;;;;20.52;79.34;101184.88;4999181;28;45464;-66
2023/08/04 10:09:31;;;;;;;;;10.75;8.25;;;;;20.67;79.61;101202.00;4998426;28;45437;-66
2023/08/04 10:11:58;;;;;;;;;6.75;6.75;;;;;20.59;78.45;101190.75;4999033;28;45429;-66
2023/08/04 10:14:23;;;;;;;;;8.25;7.25;;;;;20.68;79.04;101203.75;4999369;28;45435;-66
2023/08/04 10:16:49;;;;;;;;;7.50;7.00;;;;;20.57;78.71;101173.75;4981216;28;45476;-66
2023/08/04 10:19:23;;;;;;;;;8.50;6.75;;;;;20.79;78.15;101197.59;4997737;28;48189;-66
2023/08/04 10:21:49;;;;;;;;;6.75;6.75;;;;;20.80;78.02;101201.16;4997700;28;45477;-66
2023/08/04 10:24:19;;;;;;;;;7.25;7.25;;;;;20.76;77.23;101183.38;4999285;28;45597;-66
2023/08/04 10:26:52;;;;;;;;;8.75;8.00;;;;;20.71;77.19;101181.84;4999126;28;45690;-66
2023/08/04 10:29:19;;;;;;;;;7.75;6.00;;;;;20.65;77.41;101168.69;5008590;28;48007;-66
2023/08/04 10:31:55;;;;;;;;;6.00;6.00;;;;;20.81;76.55;101192.91;5012845;28;45634;-66
2023/08/04 10:34:37;;;;;;;;;7.50;7.00;;;;;20.83;76.76;101204.56;4981212;28;45475;-66
2023/08/04 10:37:11;;;;;;;;;6.00;5.00;;;;;20.86;76.54;101212.47;4998830;28;45381;-66
2023/08/04 10:39:41;;;;;;;;;7.75;7.25;;;;;20.87;76.67;101203.34;4980923;28;47016;-66
2023/08/04 10:42:13;;;;;;;;;6.00;6.00;;;;;20.89;76.81;101198.69;4997465;28;45451;-67
2023/08/04 10:44:49;;;;;;;;;7.00;6.75;;;;;20.87;76.54;101197.94;4981168;28;45348;-66
2023/08/04 10:47:15;;;;;;;;;6.00;6.00;;;;;20.88;76.14;101193.38;4980888;28;45647;-66
2023/08/04 10:49:40;;;;;;;;;6.25;6.25;;;;;20.97;76.73;101208.16;4997261;28;46917;-67
2023/08/04 10:52:06;;;;;;;;;6.50;6.50;;;;;21.00;76.31;101203.41;4998738;28;45427;-66
2023/08/04 10:54:31;;;;;;;;;4.50;2.50;;;;;21.03;75.82;101203.19;4998698;28;45563;-66
2023/08/04 10:56:57;;;;;;;;;6.00;5.00;;;;;20.90;76.06;101169.72;4998662;28;45568;-66
2023/08/04 10:59:22;;;;;;;;;5.25;5.25;;;;;21.01;74.79;101183.41;4998467;28;46114;-66
2023/08/04 11:01:48;;;;;;;;;4.25;4.25;;;;;21.17;74.32;101201.34;5004843;28;45390;-66
2023/08/04 11:04:16;;;;;;;;;4.25;4.25;;;;;21.13;73.28;101191.66;4982431;28;45719;-66
2023/08/04 11:06:44;;;;;;;;;6.00;4.00;;;;;21.18;73.07;101203.94;4980878;28;45512;-66
2023/08/04 11:09:10;;;;;;;;;5.25;4.00;;;;;21.18;73.52;101187.66;5017047;28;46621;-66
2023/08/04 11:11:35;;;;;;;;;6.75;5.25;;;;;21.22;73.81;101191.91;5018223;28;45558;-66
2023/08/04 11:14:03;;;;;;;;;6.00;5.00;;;;;21.32;73.12;101204.81;5018153;28;45386;-67